createdAt,value
2018-12-07T00:00:20.961Z,24.83
2018-12-07T00:02:49.418Z,28.87
2018-12-07T00:05:18.014Z,29.17
2018-12-07T00:07:46.604Z,30.33
2018-12-07T00:10:14.954Z,28.47
2018-12-07T00:12:44.149Z,29.10
2018-12-07T00:15:12.792Z,29.20
2018-12-07T00:17:41.391Z,29.53
2018-12-07T00:20:09.889Z,28.60
2018-12-07T00:22:38.302Z,28.97
2018-12-07T00:25:06.814Z,26.50
2018-12-07T00:27:35.165Z,28.60
2018-12-07T00:30:03.813Z,28.97
2018-12-07T00:32:32.744Z,29.07
2018-12-07T00:35:01.960Z,29.93
2018-12-07T00:37:30.508Z,30.43
2018-12-07T00:39:59.433Z,30.53
2018-12-07T00:42:27.773Z,30.10
2018-12-07T00:44:56.092Z,30.37
2018-12-07T00:47:24.456Z,30.93
2018-12-07T00:49:52.853Z,29.33
2018-12-07T00:52:21.267Z,29.10
2018-12-07T00:54:49.885Z,28.30
2018-12-07T00:57:18.294Z,26.40
2018-12-07T00:59:46.633Z,26.93
2018-12-07T01:02:14.960Z,25.73
2018-12-07T01:04:43.425Z,27.47
2018-12-07T01:07:11.992Z,25.10
2018-12-07T01:09:40.371Z,24.83
2018-12-07T01:12:08.921Z,24.43
2018-12-07T01:14:37.966Z,25.87
2018-12-07T01:17:07.069Z,24.63
2018-12-07T01:19:35.442Z,23.23
2018-12-07T01:22:03.746Z,21.03
2018-12-07T01:24:32.090Z,20.87
2018-12-07T01:27:01.054Z,21.10
2018-12-07T01:29:29.411Z,18.57
2018-12-07T01:31:57.730Z,18.93
2018-12-07T01:34:26.894Z,19.80
2018-12-07T01:36:55.261Z,20.30
2018-12-07T01:39:24.342Z,20.67
2018-12-07T01:41:53.043Z,20.03
2018-12-07T01:49:33.101Z,18.03
2018-12-07T01:52:01.444Z,17.10
2018-12-07T01:54:29.826Z,15.30
2018-12-07T01:56:58.182Z,15.93
2018-12-07T01:59:26.716Z,16.00
2018-12-07T02:01:55.341Z,15.90
2018-12-07T02:04:23.647Z,16.63
2018-12-07T02:06:51.986Z,16.50
2018-12-07T02:09:20.303Z,17.00
2018-12-07T02:11:48.642Z,16.60
2018-12-07T02:14:17.527Z,16.67
2018-12-07T02:16:46.043Z,16.40
2018-12-07T02:19:14.465Z,15.63
2018-12-07T02:21:43.208Z,16.43
2018-12-07T02:24:11.757Z,15.83
2018-12-07T02:26:40.724Z,15.40
2018-12-07T02:29:09.020Z,15.87
2018-12-07T02:31:37.321Z,16.93
2018-12-07T02:34:05.771Z,15.33
2018-12-07T02:36:34.347Z,16.97
2018-12-07T02:39:06.823Z,15.07
2018-12-07T02:41:35.207Z,15.73
2018-12-07T02:44:03.526Z,16.40
2018-12-07T02:46:32.611Z,15.90
2018-12-07T02:49:01.012Z,18.50
2018-12-07T02:51:29.411Z,17.70
2018-12-07T02:53:58.396Z,16.63
2018-12-07T02:56:26.697Z,18.33
2018-12-07T02:58:55.030Z,18.07
2018-12-07T03:01:23.470Z,18.53
2018-12-07T03:03:52.170Z,17.93
2018-12-07T03:06:20.558Z,17.37
2018-12-07T03:08:48.862Z,16.73
2018-12-07T03:11:17.175Z,16.43
2018-12-07T03:13:46.418Z,14.93
2018-12-07T03:16:15.066Z,13.13
2018-12-07T03:18:43.521Z,14.27
2018-12-07T03:21:12.066Z,13.83
2018-12-07T03:23:41.310Z,13.50
2018-12-07T03:26:10.384Z,11.67
2018-12-07T03:28:38.964Z,14.10
2018-12-07T03:31:07.721Z,14.03
2018-12-07T03:33:36.264Z,13.27
2018-12-07T03:36:05.458Z,13.40
2018-12-07T03:38:33.758Z,13.70
2018-12-07T03:41:02.070Z,14.20
2018-12-07T03:43:30.596Z,15.20
2018-12-07T03:45:59.251Z,14.47
2018-12-07T03:48:27.639Z,15.67
2018-12-07T03:50:56.180Z,15.13
2018-12-07T03:53:24.601Z,15.47
2018-12-07T03:55:53.136Z,16.70
2018-12-07T03:58:21.439Z,14.50
2018-12-07T04:00:50.086Z,15.87
2018-12-07T04:03:19.064Z,16.00
2018-12-07T04:05:47.987Z,15.97
2018-12-07T04:08:16.731Z,16.80
2018-12-07T04:10:45.224Z,16.97
2018-12-07T04:13:13.740Z,16.87
2018-12-07T04:15:42.417Z,17.23
2018-12-07T04:18:10.913Z,16.50
2018-12-07T04:20:39.375Z,17.37
2018-12-07T04:23:07.843Z,17.10
2018-12-07T04:25:36.275Z,18.23
2018-12-07T04:28:04.580Z,19.83
2018-12-07T04:30:32.874Z,19.03
2018-12-07T04:33:01.355Z,17.77
2018-12-07T04:35:29.881Z,18.67
2018-12-07T04:37:58.246Z,21.03
2018-12-07T04:40:26.651Z,19.47
2018-12-07T04:42:55.437Z,19.03
2018-12-07T04:45:23.902Z,20.73
2018-12-07T04:47:52.230Z,21.17
2018-12-07T04:50:20.537Z,20.27
2018-12-07T04:52:48.899Z,19.20
2018-12-07T04:55:17.985Z,18.00
2018-12-07T04:57:46.261Z,19.80
2018-12-07T05:00:15.085Z,18.93
2018-12-07T05:02:43.471Z,16.10
2018-12-07T05:05:11.882Z,17.63
2018-12-07T05:07:40.205Z,17.87
2018-12-07T05:10:08.626Z,18.90
2018-12-07T05:12:36.951Z,19.13
2018-12-07T05:15:06.716Z,18.13
2018-12-07T05:17:35.104Z,17.87
2018-12-07T05:20:05.283Z,17.37
2018-12-07T05:22:33.731Z,16.23
2018-12-07T05:25:02.309Z,16.70
2018-12-07T05:27:30.607Z,16.97
2018-12-07T05:29:59.351Z,15.90
2018-12-07T05:32:27.638Z,15.97
2018-12-07T05:34:56.006Z,15.90
2018-12-07T05:37:24.665Z,17.37
2018-12-07T05:39:53.142Z,15.97
2018-12-07T05:42:21.575Z,15.37
2018-12-07T05:44:50.035Z,15.10
2018-12-07T05:47:18.821Z,14.33
2018-12-07T05:49:47.308Z,14.50
2018-12-07T05:52:15.686Z,13.87
2018-12-07T05:54:44.492Z,15.20
2018-12-07T05:57:12.914Z,15.47
2018-12-07T05:59:41.261Z,15.00
2018-12-07T06:02:09.701Z,14.73
2018-12-07T06:04:38.318Z,15.43
2018-12-07T06:07:06.721Z,14.03
2018-12-07T06:09:35.084Z,15.10
2018-12-07T06:12:03.394Z,14.10
2018-12-07T06:14:31.741Z,13.43
2018-12-07T06:17:00.227Z,13.90
2018-12-07T06:19:28.571Z,13.70
2018-12-07T06:21:57.249Z,13.50
2018-12-07T06:24:25.728Z,14.67
2018-12-07T06:26:54.058Z,13.13
2018-12-07T06:29:22.590Z,14.03
2018-12-07T06:31:51.228Z,14.10
2018-12-07T06:34:19.622Z,14.73
2018-12-07T06:36:48.031Z,14.67
2018-12-07T06:39:16.871Z,17.70
2018-12-07T06:44:20.211Z,14.53
2018-12-07T06:46:48.694Z,14.40
2018-12-07T06:49:17.231Z,16.40
2018-12-07T06:51:45.871Z,15.63
2018-12-07T06:54:14.305Z,15.80
2018-12-07T06:56:42.724Z,15.90
2018-12-07T06:59:11.710Z,15.90
2018-12-07T07:01:40.195Z,16.50
2018-12-07T07:04:09.283Z,16.70
2018-12-07T07:06:37.584Z,17.20
2018-12-07T07:09:07.701Z,15.57
2018-12-07T07:11:36.037Z,15.63
2018-12-07T07:14:04.736Z,13.93
2018-12-07T07:16:33.208Z,14.03
2018-12-07T07:19:01.709Z,14.70
2018-12-07T07:21:30.153Z,14.77
2018-12-07T07:23:59.291Z,13.67
2018-12-07T07:26:27.844Z,13.90
2018-12-07T07:28:56.404Z,13.90
2018-12-07T07:31:24.748Z,13.13
2018-12-07T07:33:53.165Z,12.70
2018-12-07T07:36:21.477Z,11.43
2018-12-07T07:38:49.798Z,12.53
2018-12-07T07:41:18.207Z,11.87
2018-12-07T07:43:46.503Z,11.97
2018-12-07T07:46:15.127Z,11.10
2018-12-07T07:48:43.402Z,11.13
2018-12-07T07:51:11.777Z,10.90
2018-12-07T07:53:40.109Z,10.03
2018-12-07T07:56:15.200Z,11.07
2018-12-07T07:58:39.325Z,10.93
2018-12-07T08:01:07.796Z,11.47
2018-12-07T08:03:36.135Z,9.67
2018-12-07T08:06:04.645Z,9.63
2018-12-07T08:08:33.420Z,9.87
2018-12-07T08:11:02.098Z,7.60
2018-12-07T08:13:30.567Z,8.57
2018-12-07T08:15:58.958Z,9.33
2018-12-07T08:18:27.499Z,8.97
2018-12-07T08:21:01.333Z,8.23
2018-12-07T08:23:30.127Z,8.93
2018-12-07T08:25:58.684Z,8.70
2018-12-07T08:28:27.144Z,9.37
2018-12-07T08:30:55.462Z,9.43
2018-12-07T08:33:23.844Z,8.57
2018-12-07T08:35:52.877Z,8.50
2018-12-07T08:38:21.191Z,8.03
2018-12-07T08:40:49.733Z,8.87
2018-12-07T08:43:18.424Z,8.53
2018-12-07T08:45:46.717Z,9.07
2018-12-07T08:48:15.253Z,10.17
2018-12-07T08:50:44.459Z,9.40
2018-12-07T08:53:13.371Z,9.30
2018-12-07T08:55:41.937Z,9.03
2018-12-07T08:58:10.408Z,8.67
2018-12-07T09:00:38.887Z,9.43
2018-12-07T09:03:07.377Z,9.13
2018-12-07T09:05:35.818Z,8.20
2018-12-07T09:08:04.124Z,8.60
2018-12-07T09:10:32.447Z,8.40
2018-12-07T09:13:01.378Z,8.53
2018-12-07T09:15:29.702Z,8.00
2018-12-07T09:17:58.086Z,7.23
2018-12-07T09:20:26.710Z,7.83
2018-12-07T09:22:55.316Z,8.67
2018-12-07T09:25:23.651Z,7.60
2018-12-07T09:27:51.936Z,7.23
2018-12-07T09:30:20.325Z,7.40
2018-12-07T09:32:49.189Z,5.73
2018-12-07T09:35:18.605Z,6.80
2018-12-07T09:37:46.891Z,5.97
2018-12-07T09:40:16.210Z,5.70
2018-12-07T09:42:45.116Z,5.50
2018-12-07T09:45:13.551Z,4.90
2018-12-07T09:47:41.823Z,5.00
2018-12-07T09:50:10.127Z,5.20
2018-12-07T09:52:38.590Z,4.53
2018-12-07T09:55:07.285Z,4.73
2018-12-07T09:57:35.710Z,4.23
2018-12-07T10:00:05.853Z,4.27
2018-12-07T10:02:34.221Z,4.13
2018-12-07T10:05:02.533Z,3.47
2018-12-07T10:07:30.856Z,3.83
2018-12-07T10:09:59.170Z,4.00
2018-12-07T10:12:27.598Z,3.47
2018-12-07T10:14:56.079Z,3.83
2018-12-07T10:17:24.571Z,3.83
2018-12-07T10:19:52.854Z,3.53
2018-12-07T10:22:21.389Z,3.60
2018-12-07T10:24:49.828Z,3.30
2018-12-07T10:27:18.336Z,3.80
2018-12-07T10:29:46.677Z,3.83
2018-12-07T10:32:15.157Z,3.77
2018-12-07T10:34:43.623Z,3.30
2018-12-07T10:37:12.282Z,3.30
2018-12-07T10:39:40.690Z,3.53
2018-12-07T10:42:09.066Z,3.20
2018-12-07T10:44:37.426Z,3.50
2018-12-07T10:47:06.434Z,3.37
2018-12-07T10:49:34.809Z,3.30
2018-12-07T10:52:03.495Z,2.90
2018-12-07T10:54:31.908Z,2.97
2018-12-07T10:57:00.239Z,3.20
2018-12-07T10:59:28.581Z,2.70
2018-12-07T11:02:02.650Z,2.90
2018-12-07T11:04:36.857Z,3.20
2018-12-07T11:07:11.014Z,3.00
2018-12-07T11:09:44.057Z,3.17
2018-12-07T11:12:18.011Z,3.10
2018-12-07T11:17:54.883Z,2.70
2018-12-07T11:20:28.832Z,3.50
2018-12-07T11:23:02.753Z,2.70
2018-12-07T11:25:36.604Z,2.37
2018-12-07T11:28:10.297Z,2.97
2018-12-07T11:33:44.748Z,2.33
2018-12-07T11:36:13.315Z,2.00
2018-12-07T11:38:41.895Z,2.00
2018-12-07T11:41:10.539Z,2.23
2018-12-07T11:43:39.170Z,1.97
2018-12-07T11:46:07.561Z,2.30
2018-12-07T11:48:36.132Z,2.30
2018-12-07T11:51:05.353Z,1.90
2018-12-07T11:53:34.527Z,1.97
2018-12-07T11:56:02.878Z,2.33
2018-12-07T11:58:31.897Z,2.57
2018-12-07T12:01:00.301Z,2.17
2018-12-07T12:03:30.372Z,3.17
2018-12-07T12:05:58.741Z,2.50
2018-12-07T12:08:27.458Z,2.40
2018-12-07T12:10:55.894Z,4.20
2018-12-07T12:13:24.258Z,2.93
2018-12-07T12:15:52.627Z,2.70
2018-12-07T12:18:21.013Z,2.80
2018-12-07T12:20:49.411Z,2.70
2018-12-07T12:23:17.896Z,2.50
2018-12-07T12:25:46.362Z,4.00
2018-12-07T12:28:14.665Z,2.80
2018-12-07T12:30:42.976Z,2.73
2018-12-07T12:33:11.307Z,2.60
2018-12-07T12:35:39.627Z,3.43
2018-12-07T12:38:08.038Z,2.53
2018-12-07T12:40:36.932Z,2.93
2018-12-07T12:43:05.300Z,2.17
2018-12-07T12:45:33.604Z,3.30
2018-12-07T12:48:02.762Z,1.77
2018-12-07T12:50:36.694Z,2.03
2018-12-07T12:53:05.398Z,1.83
2018-12-07T12:55:34.091Z,2.10
2018-12-07T12:58:02.398Z,2.03
2018-12-07T13:00:31.312Z,2.03
2018-12-07T13:03:00.077Z,1.83
2018-12-07T13:05:29.290Z,1.80
2018-12-07T13:07:57.707Z,1.70
2018-12-07T13:10:26.358Z,1.40
2018-12-07T13:12:55.029Z,1.70
2018-12-07T13:15:23.352Z,1.23
2018-12-07T13:17:51.918Z,1.60
2018-12-07T13:20:20.468Z,1.30
2018-12-07T13:22:48.835Z,1.30
2018-12-07T13:25:17.107Z,1.33
2018-12-07T13:27:45.450Z,1.30
2018-12-07T13:30:13.746Z,1.07
2018-12-07T13:32:42.201Z,1.20
2018-12-07T13:35:11.173Z,1.00
2018-12-07T13:37:39.691Z,1.30
2018-12-07T13:40:08.354Z,1.13
2018-12-07T13:42:37.036Z,1.37
2018-12-07T13:45:07.428Z,1.20
2018-12-07T13:47:36.077Z,1.20
2018-12-07T13:50:11.226Z,1.30
2018-12-07T13:52:39.736Z,1.23
2018-12-07T13:55:08.314Z,1.03
2018-12-07T13:57:37.276Z,1.03
2018-12-07T14:00:08.380Z,1.10
2018-12-07T14:02:37.130Z,1.10
2018-12-07T14:05:06.014Z,1.20
2018-12-07T14:07:34.552Z,1.00
2018-12-07T14:10:03.275Z,1.10
2018-12-07T14:12:31.955Z,1.00
2018-12-07T14:15:00.395Z,0.90
2018-12-07T14:17:28.900Z,1.10
2018-12-07T14:19:57.366Z,0.63
2018-12-07T14:22:26.185Z,0.80
2018-12-07T14:24:54.600Z,0.80
2018-12-07T14:27:23.051Z,0.90
2018-12-07T14:29:51.580Z,0.60
2018-12-07T14:32:20.360Z,0.67
2018-12-07T14:34:49.649Z,0.80
2018-12-07T14:37:18.675Z,0.70
2018-12-07T14:39:47.179Z,0.60
2018-12-07T14:42:16.164Z,0.70
2018-12-07T14:44:44.657Z,0.93
2018-12-07T14:47:16.493Z,1.00
2018-12-07T14:49:44.867Z,0.77
2018-12-07T14:52:13.443Z,0.77
2018-12-07T14:54:42.395Z,0.70
2018-12-07T14:57:11.559Z,0.90
2018-12-07T14:59:40.265Z,0.70
2018-12-07T15:02:08.721Z,0.60
2018-12-07T15:04:37.219Z,0.87
2018-12-07T15:07:05.845Z,0.63
2018-12-07T15:09:34.670Z,0.77
2018-12-07T15:12:03.287Z,1.00
2018-12-07T15:14:31.881Z,1.10
2018-12-07T15:17:00.319Z,0.90
2018-12-07T15:19:28.968Z,1.10
2018-12-07T15:21:57.685Z,1.10
2018-12-07T15:24:26.309Z,1.03
2018-12-07T15:26:54.981Z,1.10
2018-12-07T15:29:23.479Z,0.90
2018-12-07T15:31:51.905Z,1.00
2018-12-07T15:34:20.559Z,1.10
2018-12-07T15:36:49.456Z,1.10
2018-12-07T15:39:18.222Z,1.37
2018-12-07T15:41:46.748Z,1.00
2018-12-07T15:44:15.244Z,1.50
2018-12-07T15:46:44.256Z,1.30
2018-12-07T15:49:12.801Z,1.33
2018-12-07T15:51:41.345Z,1.30
2018-12-07T15:54:10.085Z,1.10
2018-12-07T15:56:39.025Z,0.87
2018-12-07T15:59:07.494Z,1.30
2018-12-07T16:01:36.057Z,0.80
2018-12-07T16:04:04.600Z,0.70
2018-12-07T16:06:33.438Z,0.60
2018-12-07T16:09:02.237Z,0.70
2018-12-07T16:11:32.510Z,0.70
2018-12-07T16:14:01.022Z,0.70
2018-12-07T16:16:29.611Z,0.90
2018-12-07T16:18:58.108Z,0.70
2018-12-07T16:21:26.549Z,0.60
2018-12-07T16:23:55.061Z,0.50
2018-12-07T16:26:23.757Z,0.87
2018-12-07T16:28:52.211Z,0.60
2018-12-07T16:31:20.906Z,0.70
2018-12-07T16:33:49.854Z,0.60
2018-12-07T16:36:18.742Z,0.60
2018-12-07T16:38:47.323Z,0.63
2018-12-07T16:41:15.885Z,1.20
2018-12-07T16:43:44.604Z,1.20
2018-12-07T16:46:13.831Z,1.10
2018-12-07T16:48:42.326Z,1.23
2018-12-07T16:51:11.303Z,0.60
2018-12-07T16:53:39.829Z,0.50
2018-12-07T16:56:08.330Z,0.67
2018-12-07T16:58:41.160Z,1.30
2018-12-07T17:01:09.676Z,1.00
2018-12-07T17:03:38.449Z,0.53
2018-12-07T17:06:07.117Z,0.80
2018-12-07T17:08:35.536Z,1.00
2018-12-07T17:11:04.025Z,0.80
2018-12-07T17:13:32.480Z,0.70
2018-12-07T17:16:01.078Z,0.70
2018-12-07T17:18:29.592Z,0.73
2018-12-07T17:20:58.102Z,1.17
2018-12-07T17:23:27.465Z,1.10
2018-12-07T17:25:56.690Z,1.10
2018-12-07T17:28:25.320Z,0.90
2018-12-07T17:30:54.017Z,0.73
2018-12-07T17:33:22.496Z,1.00
2018-12-07T17:35:51.077Z,0.93
2018-12-07T17:38:19.855Z,0.83
2018-12-07T17:40:49.303Z,1.07
2018-12-07T17:43:17.887Z,1.20
2018-12-07T17:45:46.341Z,0.87
2018-12-07T17:48:14.739Z,1.10
2018-12-07T17:50:43.158Z,1.20
2018-12-07T17:53:11.560Z,1.10
2018-12-07T17:55:40.245Z,1.00
2018-12-07T17:58:08.622Z,0.90
2018-12-07T18:00:37.043Z,1.33
2018-12-07T18:03:05.479Z,1.10
2018-12-07T18:05:34.367Z,1.70
2018-12-07T18:08:03.303Z,1.17
2018-12-07T18:10:31.832Z,0.90
2018-12-07T18:13:00.335Z,1.60
2018-12-07T18:15:29.103Z,1.40
2018-12-07T18:17:57.791Z,0.80
2018-12-07T18:20:26.703Z,1.27
2018-12-07T18:22:55.366Z,0.80
2018-12-07T18:25:24.040Z,1.00
2018-12-07T18:27:52.721Z,1.00
2018-12-07T18:30:21.435Z,1.00
2018-12-07T18:32:49.919Z,1.10
2018-12-07T18:35:19.136Z,1.10
2018-12-07T18:37:47.674Z,0.80
2018-12-07T18:40:16.325Z,1.10
2018-12-07T18:42:45.055Z,0.73
2018-12-07T18:45:14.015Z,0.80
2018-12-07T18:47:43.350Z,1.20
2018-12-07T18:50:12.249Z,1.40
2018-12-07T18:52:40.896Z,1.43
2018-12-07T18:55:09.781Z,1.40
2018-12-07T18:57:38.181Z,2.20
2018-12-07T19:00:08.942Z,2.20
2018-12-07T19:02:37.516Z,1.40
2018-12-07T19:05:06.724Z,1.77
2018-12-07T19:07:35.460Z,1.20
2018-12-07T19:10:05.399Z,1.70
2018-12-07T19:12:33.998Z,1.67
2018-12-07T19:15:02.798Z,1.53
2018-12-07T19:17:31.324Z,1.40
2018-12-07T19:19:59.849Z,2.13
2018-12-07T19:22:28.292Z,1.03
2018-12-07T19:24:56.676Z,1.00
2018-12-07T19:27:25.107Z,1.40
2018-12-07T19:29:53.594Z,0.90
2018-12-07T19:32:22.262Z,0.50
2018-12-07T19:34:50.928Z,0.60
2018-12-07T19:37:19.965Z,0.60
2018-12-07T19:39:49.255Z,0.90
2018-12-07T19:42:17.795Z,0.80
2018-12-07T19:44:46.595Z,0.70
2018-12-07T19:47:15.015Z,0.73
2018-12-07T19:49:43.599Z,0.90
2018-12-07T19:52:12.215Z,1.23
2018-12-07T19:54:40.768Z,2.60
2018-12-07T19:57:09.660Z,4.03
2018-12-07T19:59:38.047Z,1.67
2018-12-07T20:02:06.476Z,1.97
2018-12-07T20:04:35.353Z,1.63
2018-12-07T20:07:04.240Z,2.00
2018-12-07T20:09:32.725Z,3.93
2018-12-07T20:12:01.533Z,6.43
2018-12-07T20:14:30.019Z,5.20
2018-12-07T20:16:58.559Z,3.00
2018-12-07T20:19:26.845Z,2.33
2018-12-07T20:21:55.241Z,1.70
2018-12-07T20:24:23.855Z,3.93
2018-12-07T20:26:52.511Z,3.97
2018-12-07T20:29:21.455Z,9.63
2018-12-07T20:31:50.109Z,3.30
2018-12-07T20:34:19.410Z,4.00
2018-12-07T20:36:48.549Z,3.30
2018-12-07T20:39:17.017Z,6.00
2018-12-07T20:41:45.566Z,7.37
2018-12-07T20:44:14.173Z,2.43
2018-12-07T20:46:43.430Z,4.27
2018-12-07T20:49:11.871Z,3.20
2018-12-07T20:51:40.375Z,3.63
2018-12-07T20:54:09.496Z,3.97
2018-12-07T20:56:38.398Z,5.40
2018-12-07T20:59:07.760Z,2.27
2018-12-07T21:01:36.468Z,4.40
2018-12-07T21:04:31.378Z,3.93
2018-12-07T21:07:36.649Z,3.67
2018-12-07T21:14:01.800Z,2.20
2018-12-07T21:19:47.799Z,1.10
2018-12-07T21:22:16.314Z,1.40
2018-12-07T21:24:44.751Z,1.67
2018-12-07T21:27:13.711Z,1.00
2018-12-07T21:29:42.316Z,1.90
2018-12-07T21:32:13.846Z,8.40
2018-12-07T21:34:52.823Z,4.17
2018-12-07T21:37:21.589Z,4.70
2018-12-07T21:39:50.368Z,1.50
2018-12-07T21:42:19.045Z,1.60
2018-12-07T21:44:47.441Z,1.90
2018-12-07T21:47:15.938Z,1.73
2018-12-07T21:49:44.675Z,1.60
2018-12-07T21:52:16.892Z,1.57
2018-12-07T21:54:45.948Z,2.07
2018-12-07T21:57:15.529Z,1.57
2018-12-07T21:59:44.481Z,1.63
2018-12-07T22:02:13.506Z,1.80
2018-12-07T22:04:41.989Z,2.00
2018-12-07T22:07:15.180Z,1.60
2018-12-07T22:09:43.816Z,2.03
2018-12-07T22:12:12.757Z,2.43
2018-12-07T22:14:41.643Z,2.07
2018-12-07T22:17:10.244Z,2.27
2018-12-07T22:19:38.789Z,2.00
2018-12-07T22:22:07.351Z,3.00
2018-12-07T22:24:36.691Z,2.80
2018-12-07T22:27:05.673Z,2.93
2018-12-07T22:29:34.309Z,3.37
2018-12-07T22:32:03.334Z,3.50
2018-12-07T22:34:32.040Z,3.57
2018-12-07T22:37:00.703Z,4.73
2018-12-07T22:39:29.122Z,5.40
2018-12-07T22:41:58.525Z,6.13
2018-12-07T22:44:27.856Z,7.70
2018-12-07T22:46:56.683Z,6.70
2018-12-07T22:49:25.122Z,6.20
2018-12-07T22:51:54.463Z,6.13
2018-12-07T22:54:22.813Z,5.80
2018-12-07T22:56:51.875Z,5.60
2018-12-07T22:59:20.259Z,5.00
2018-12-07T23:01:48.758Z,4.10
2018-12-07T23:04:17.441Z,4.20
2018-12-07T23:06:45.725Z,4.03
2018-12-07T23:09:14.036Z,3.00
2018-12-07T23:11:42.339Z,3.60
2018-12-07T23:14:10.982Z,2.70
2018-12-07T23:16:39.374Z,3.50
2018-12-07T23:19:07.729Z,3.30
2018-12-07T23:21:36.032Z,3.40
2018-12-07T23:24:04.334Z,3.27
2018-12-07T23:26:32.667Z,3.20
2018-12-07T23:29:00.942Z,4.40
2018-12-07T23:31:29.324Z,3.63
2018-12-07T23:33:58.409Z,3.60
2018-12-07T23:36:27.065Z,3.47
2018-12-07T23:38:55.568Z,3.50
2018-12-07T23:41:23.892Z,2.43
2018-12-07T23:43:52.297Z,3.13
2018-12-07T23:46:20.648Z,2.77
2018-12-07T23:48:48.958Z,2.40
2018-12-07T23:51:17.501Z,2.90
2018-12-07T23:53:46.059Z,3.33
2018-12-07T23:56:14.547Z,2.80
2018-12-07T23:58:42.985Z,2.87
